• Join FlightAware (Why Join?)
  • Login
  • US Flag 
08:12AM EST


 

Airport Tracker/Info


-or-


 

Live Flight TrackerFlight Track Log ✈ N4304W ✈ 28-May-2013 ✈ W95 - KMTN

Flight Track Log - Related Links

Times and Time Zones

All times are in EDT time to prevent confusion due to time zone crossing. See the N4304W flight status page for this flight to view local times or setup timezone preferences in your user account.

Time Position Orientation Groundspeed Altitude Reporting Facility
EDT Latitude Longitude Course Direction KTS MPH feet Rate Location/Type
07:08AM 35.2753 -75.7678 77° East 133 153 5,200  Level Washington Center
07:09AM 35.3368 -75.9897 39° Northeast  Level Estimated
07:09AM 35.2964 -75.7397 47° Northeast 111 128 5,700  Level Washington Center
07:10AM 35.3760 -75.9936 39° Northeast  Level Estimated
07:10AM 35.3214 -75.7092 45° Northeast 135 155 6,000  Level Washington Center
07:11AM 35.3849 -75.9465 77° East  Level FlightAware Approximate
07:11AM 35.3442 -75.6811 45° Northeast 135 155 6,000  Level Washington Center
07:12AM 35.3938 -75.8995 77° East  Level FlightAware Approximate
07:12AM 35.3714 -75.6481 45° Northeast 129 148 6,000  Level Washington Center
07:13AM 35.4027 -75.8524 77° East  Level FlightAware Approximate
07:13AM 35.3986 -75.6228 37° Northeast 124 143 6,000  Level Washington Center
07:14AM 35.4116 -75.8053 77° East  Level FlightAware Approximate
07:14AM 35.4300 -75.5947 36° Northeast 124 143 6,000  Level Washington Center
07:15AM 35.4611 -75.5717 31° Northeast 129 148 6,000  Level Washington Center
07:16AM 35.4903 -75.5486 33° Northeast 129 148 6,000  Level Washington Center
07:17AM 35.5194 -75.5258 32° Northeast 123 142 6,000  Level Washington Center
07:18AM 35.5508 -75.4975 36° Northeast 123 142 6,000  Level Washington Center
07:19AM 35.5800 -75.4772 29° Northeast 123 142 6,000  Level Washington Center
07:20AM 35.6072 -75.4464 43° Northeast 123 142 6,000  Level Washington Center
07:21AM 35.6406 -75.4567 346° North 113 130 6,000  Level Washington Center
07:22AM 35.6678 -75.4822 323° Northwest 106 122 6,000  Level Washington Center
07:23AM 35.7011 -75.4975 340° North 117 135 6,000  Level Washington Center
07:24AM 35.7344 -75.5128 340° North 117 135 6,000  Level Washington Center
07:25AM 35.7658 -75.5306 335° Northwest 117 135 6,000  Level Washington Center
07:26AM 35.7992 -75.5486 336° Northwest 117 135 6,000  Level Washington Center
07:27AM 35.8117 -75.5664 311° West 125 144 6,000  Level Washington Center
07:27AM 35.8306 -75.5664 360° North 117 135 6,000  Level Washington Center
07:28AM 35.8492 -75.5869 318° Northwest 124 143 6,000  Level Washington Center
07:28AM 35.8617 -75.5817 19° North 117 135 6,000  Level Washington Center
07:29AM 35.8806 -75.6047 315° West 125 144 6,000  Level Washington Center
07:29AM 35.8953 -75.5997 15° North 117 135 6,000  Level Washington Center
07:30AM 35.9119 -75.6228 312° West 125 144 6,000  Level Washington Center
07:30AM 35.9264 -75.6178 16° North 117 135 6,000  Level Washington Center
07:31AM 35.9431 -75.6383 315° West 124 143 6,000  Level Washington Center
07:31AM 35.9578 -75.6331 16° North 112 129 6,000  Level Washington Center
07:32AM 35.9786 -75.6561 318° Northwest 124 143 6,000  Level Washington Center
07:32AM 35.9911 -75.6511 18° North 112 129 6,000  Level Washington Center
07:33AM 36.0119 -75.6742 318° Northwest 126 145 6,000  Level Washington Center
07:33AM 36.0203 -75.6692 26° Northeast 112 129 6,000  Level Washington Center
07:34AM 36.0433 -75.6897 324° Northwest 128 147 6,000  Level Washington Center
07:34AM 36.0558 -75.6869 10° North 112 129 6,000  Level Washington Center
07:35AM 36.0744 -75.7078 318° Northwest 128 147 6,000  Level Washington Center
07:35AM 36.0872 -75.7025 18° North 117 135 6,000  Level Washington Center
07:36AM 36.1081 -75.7231 321° Northwest 127 146 6,000  Level Washington Center
07:36AM 36.1183 -75.7231 360° North 117 135 6,000  Level Washington Center
07:37AM 36.1433 -75.7411 330° Northwest 127 146 6,000  Level Washington Center
07:38AM 36.1747 -75.7592 335° Northwest 125 144 6,000  Level Washington Center
07:39AM 36.2081 -75.7772 336° Northwest 127 146 6,000  Level Washington Center
07:40AM 36.2433 -75.7981 335° Northwest 132 152 6,000  Level Washington Center
07:41AM 36.2767 -75.8161 336° Northwest 133 153 6,000  Level Washington Center
07:42AM 36.3103 -75.8317 340° North 131 151 6,000  Level Washington Center
07:43AM 36.3436 -75.8497 336° Northwest 129 148 6,000  Level Washington Center
07:44AM 36.3789 -75.8656 340° North 131 151 6,000  Level Washington Center
07:45AM 36.4122 -75.8836 336° Northwest 130 150 6,000  Level Washington Center
07:46AM 36.4456 -75.9044 333° Northwest 130 150 6,000  Level Washington Center
07:47AM 36.4644 -75.9147 336° Northwest 131 151 6,000  Level Washington Center
07:48AM 36.4978 -75.9331 336° Northwest 131 151 6,000  Level Washington Center
07:49AM 36.5289 -75.9514 335° Northwest 131 151 6,000  Level Washington Center
07:50AM 36.5644 -75.9669 341° North 131 151 6,000  Level Washington Center
07:51AM 36.5956 -75.9853 335° Northwest 130 150 6,000  Level Washington Center
07:52AM 36.6289 -76.0033 337° Northwest 130 150 6,000  Level Washington Center
07:53AM 36.6603 -76.0192 338° Northwest 129 148 6,000  Level Washington Center
07:54AM 36.6933 -76.0400 333° Northwest 132 152 6,000  Level Washington Center
07:55AM 36.7267 -76.0583 336° Northwest 130 150 6,000  Level Washington Center
07:56AM 36.7600 -76.0767 336° Northwest 127 146 6,000  Level Washington Center
07:57AM 36.7956 -76.0978 335° Northwest 126 145 6,000  Level Washington Center
07:58AM 36.8289 -76.1136 339° North 130 150 6,000  Level Washington Center
07:59AM 36.8619 -76.1319 336° Northwest 129 148 6,000 120 Level Washington Center
08:00AM 36.8933 -76.1503 335° Northwest 116 133 6,300 360 Climbing Washington Center
08:01AM 36.9225 -76.1633 340° North 109 125 6,800 300 Climbing Washington Center
08:02AM 36.9472 -76.1897 320° Northwest 126 145 7,000 60 Climbing Washington Center
08:03AM 36.9786 -76.2133 329° Northwest 128 147 7,000  Level Washington Center
08:04AM 37.0056 -76.2447 317° Northwest 128 147 7,000  Level Washington Center
08:05AM 37.0325 -76.2708 322° Northwest 126 145 7,000  Level Washington Center
08:06AM 37.0614 -76.3025 319° Northwest 128 147 7,000  Level Washington Center
08:07AM 37.0883 -76.3286 322° Northwest 129 148 7,000  Level Washington Center
08:09AM 37.1333 -76.3833 316° Northwest 126 145 7,000  Level Potomac TRACON
08:10AM 37.1667 -76.4000 338° Northwest 130 150 7,000  Level Potomac TRACON
08:11AM 37.2000 -76.4333 321° Northwest 129 148 7,000 -60 Level Potomac TRACON
08:12AM 37.2167 -76.4500 321° Northwest 135 155 6,900  Descending Potomac TRACON
08:13AM 37.2500 -76.4500 360° North 138 159 7,100 60 Climbing Potomac TRACON
08:14AM 37.3000 -76.4667 345° North 143 165 7,100 -120 Level Potomac TRACON
08:15AM 37.3333 -76.4667 360° North 141 162 6,900 -420 Descending Potomac TRACON
08:16AM 37.3667 -76.4833 338° Northwest 162 186 6,300 -600 Descending Potomac TRACON
08:17AM 37.4167 -76.5000 345° North 166 191 5,700 -660 Descending Potomac TRACON
08:17AM 37.4500 -76.5000 360° North 163 188 5,100 -540 Descending Potomac TRACON
08:18AM 37.4836 -76.5131 343° North 155 178 4,900 -120 Descending Washington Center
08:19AM 37.5253 -76.5214 351° North 139 160 4,900  Level Washington Center
08:20AM 37.5647 -76.5297 350° North 138 159 4,900  Level Washington Center
08:21AM 37.6022 -76.5406 347° North 137 158 4,900  Level Washington Center
08:22AM 37.6397 -76.5492 350° North 138 159 4,900  Level Washington Center
08:23AM 37.6750 -76.5572 350° North 141 162 4,900  Level Washington Center
08:24AM 37.7106 -76.5656 349° North 140 161 4,900  Level Washington Center
08:25AM 37.7519 -76.5794 345° North 137 158 4,900  Level Washington Center
08:26AM 37.7894 -76.5878 350° North 136 157 5,000  Climbing Washington Center
08:27AM 37.8250 -76.5961 350° North 136 157 4,900 -60 Descending Washington Center
08:28AM 37.8625 -76.6019 353° North 137 158 4,900  Level Washington Center
08:29AM 37.8956 -76.6128 345° North 139 160 4,900  Level Washington Center
08:30AM 37.9394 -76.6267 346° North 137 158 4,900  Level Washington Center
08:31AM 37.9769 -76.6350 350° North 136 157 4,900  Level Washington Center
08:32AM 38.0144 -76.6328 North 147 169 4,900  Level Washington Center
08:33AM 38.0500 -76.6042 32° Northeast 158 182 4,900  Level Washington Center
08:34AM 38.0942 -76.5786 24° Northeast 155 178 4,900  Level Washington Center
08:35AM 38.1339 -76.5578 22° Northeast 153 176 4,900  Level Washington Center
08:36AM 38.1694 -76.5372 24° Northeast 153 176 4,900  Level Washington Center
08:37AM 38.2156 -76.5139 22° Northeast 152 175 5,000  Climbing Washington Center
08:38AM 38.2553 -76.4961 19° North 151 174 4,900 -60 Descending Washington Center
08:39AM 38.2950 -76.4728 25° Northeast 155 178 4,900  Level Washington Center
08:40AM 38.3328 -76.4494 26° Northeast 155 178 4,900  Level Washington Center
08:41AM 38.3747 -76.4311 19° North 155 178 4,900  Level Washington Center
08:42AM 38.4122 -76.4106 23° Northeast 150 173 4,900  Level Washington Center
08:44AM 38.4519 -76.3869 25° Northeast 155 178 4,900  Level Washington Center
08:46AM 38.5500 -76.3333 23° Northeast 153 176 4,900  Level Potomac TRACON
08:47AM 38.5833 -76.3167 21° North 153 176 5,000  Climbing Potomac TRACON
08:48AM 38.6167 -76.3000 21° North 155 178 5,000  Level Potomac TRACON
08:49AM 38.6500 -76.2667 38° Northeast 157 181 5,000 -60 Level Potomac TRACON
08:50AM 38.7000 -76.2500 15° North 157 181 4,900 -60 Descending Potomac TRACON
08:51AM 38.7333 -76.2333 21° North 154 177 4,900  Level Potomac TRACON
08:52AM 38.7667 -76.2167 21° North 162 186 5,000  Climbing Potomac TRACON
08:53AM 38.8167 -76.1667 38° Northeast 164 189 5,000  Level Potomac TRACON
08:54AM 38.8333 -76.1333 57° Northeast 164 189 5,000 -60 Level Potomac TRACON
08:54AM 38.8833 -76.1167 15° North 157 181 4,900 -480 Descending Potomac TRACON
08:55AM 38.9167 -76.1333 339° North 150 173 4,200 -720 Descending Potomac TRACON
08:56AM 38.9500 -76.1667 322° Northwest 148 170 3,500 -720 Descending Potomac TRACON
08:57AM 38.9833 -76.1833 339° North 143 165 2,900 -360 Descending Potomac TRACON
08:58AM 39.0167 -76.2167 322° Northwest 138 159 2,900 -240 Level Potomac TRACON
08:59AM 39.0500 -76.2333 339° North 147 169 2,500 -540 Descending Potomac TRACON
09:00AM 39.0833 -76.2667 322° Northwest 156 180 1,900 -360 Descending Potomac TRACON
09:01AM 39.1333 -76.2833 346° North 147 169 1,900  Level Potomac TRACON
09:02AM 39.1667 -76.2833 360° North 145 167 2,000  Climbing Potomac TRACON
09:03AM 39.2000 -76.3000 339° North 147 169 1,900  Descending Potomac TRACON
09:04AM 39.2333 -76.3167 339° North 144 166 2,000 -300 Climbing Potomac TRACON
09:05AM 39.2667 -76.3333 339° North 127 146 1,400 -540 Descending Potomac TRACON
09:06AM 39.2833 -76.3667 303° West 101 116 1,000 -540 Descending Potomac TRACON
09:07AM 39.3000 -76.3833 322° Northwest 100 115 400 -600 Descending Potomac TRACON
09:09AM 39.3167 -76.4000 339° North  Level FlightAware Approximate
09:16AM 39.3257 -76.4138 339° North  Level Estimated
09:17AM 39.3257 -76.4138 339° North  Level Estimated
09:18AM 39.3257 -76.4138 339° North  Level Estimated
09:19AM 39.3257 -76.4138 339° North  Level Estimated